Time;durP1;ratioP1;P1;durP2;ratioP2;P2;SDS_P1;SDS_P2;PMS_P1;PMS_P2;Temp;Humidity;BMP_temperature;BMP_pressure;BME280_temperature;BME280_humidity;BME280_pressure;Samples;Min_cycle;Max_cycle;Signal;HPM_P1;HPM_P2
2022/07/01 00:00:36;;;;;;;4.03;0.40;;;15.60;99.90;;;;;;4751767;30;20048;-85
2022/07/01 00:03:04;;;;;;;2.20;0.40;;;15.60;99.90;;;;;;4755251;30;20060;-85
2022/07/01 00:05:30;;;;;;;2.50;0.40;;;15.70;99.90;;;;;;4751567;30;20110;-85
2022/07/01 00:07:56;;;;;;;3.50;0.40;;;15.60;99.90;;;;;;4735975;30;20099;-84
2022/07/01 00:10:21;;;;;;;2.50;0.40;;;15.70;99.90;;;;;;4751768;30;20048;-85
2022/07/01 00:12:47;;;;;;;3.03;0.43;;;15.60;99.90;;;;;;4751858;30;20572;-85
2022/07/01 00:15:13;;;;;;;2.17;0.20;;;15.60;99.90;;;;;;4732846;30;20582;-86
2022/07/01 00:17:39;;;;;;;1.52;0.30;;;15.60;99.90;;;;;;4746662;30;20135;-85
2022/07/01 00:20:09;;;;;;;3.00;0.40;;;15.60;99.90;;;;;;4735510;30;20068;-86
2022/07/01 00:22:36;;;;;;;0.95;0.28;;;15.60;99.90;;;;;;4752233;30;20048;-86
2022/07/01 00:25:02;;;;;;;1.85;0.38;;;15.60;99.90;;;;;;4737453;30;20138;-85
2022/07/01 00:27:28;;;;;;;2.53;0.40;;;15.50;99.90;;;;;;4742758;30;20040;-85
2022/07/01 00:29:53;;;;;;;1.35;0.35;;;15.60;99.90;;;;;;4750333;30;20391;-85
2022/07/01 00:32:19;;;;;;;0.50;0.22;;;15.50;99.90;;;;;;4754789;30;20422;-86
2022/07/01 00:34:45;;;;;;;0.82;0.20;;;15.50;99.90;;;;;;4752848;30;20114;-86
2022/07/01 00:37:11;;;;;;;2.35;0.30;;;15.50;99.90;;;;;;4739059;30;20080;-86
2022/07/01 00:39:36;;;;;;;2.83;0.30;;;15.50;99.90;;;;;;4738510;30;20473;-85
2022/07/01 00:42:03;;;;;;;0.75;0.40;;;15.60;99.90;;;;;;4754491;30;20044;-85
2022/07/01 00:44:30;;;;;;;2.67;0.47;;;15.60;99.90;;;;;;4754362;30;20056;-85
2022/07/01 00:46:59;;;;;;;1.55;0.40;;;15.50;99.90;;;;;;4731294;30;20052;-85
2022/07/01 00:49:26;;;;;;;1.55;0.43;;;15.50;99.90;;;;;;4755711;30;20060;-85
2022/07/01 00:51:52;;;;;;;1.17;0.43;;;15.50;99.90;;;;;;4743648;30;20048;-85
2022/07/01 00:54:19;;;;;;;0.65;0.30;;;15.50;99.90;;;;;;4754174;30;20059;-86
2022/07/01 00:56:45;;;;;;;2.83;0.30;;;15.50;99.90;;;;;;4753765;30;20036;-85
2022/07/01 00:59:11;;;;;;;1.55;0.60;;;15.60;99.90;;;;;;4754428;30;20048;-85
2022/07/01 01:01:37;;;;;;;0.75;0.30;;;15.60;99.90;;;;;;4761825;30;20054;-85
2022/07/01 01:04:03;;;;;;;1.80;0.30;;;15.60;99.90;;;;;;4754448;30;20048;-86
2022/07/01 01:06:29;;;;;;;1.55;0.20;;;15.50;99.90;;;;;;4753298;30;20501;-84
2022/07/01 01:08:55;;;;;;;0.85;0.17;;;15.50;99.90;;;;;;4738343;30;20044;-85
2022/07/01 01:11:20;;;;;;;1.00;0.30;;;15.50;99.90;;;;;;4737922;30;20080;-86
2022/07/01 01:13:46;;;;;;;0.88;0.30;;;15.50;99.90;;;;;;4741019;30;20054;-86
2022/07/01 01:16:18;;;;;;;1.45;0.20;;;15.50;99.90;;;;;;4752582;30;20045;-84
2022/07/01 01:18:43;;;;;;;2.70;0.20;;;15.60;99.90;;;;;;4737795;30;20052;-85
2022/07/01 01:21:09;;;;;;;0.50;0.20;;;15.50;99.90;;;;;;4738186;30;20129;-85
2022/07/01 01:23:35;;;;;;;0.65;0.40;;;15.50;99.90;;;;;;4753518;30;20056;-85
2022/07/01 01:26:02;;;;;;;1.95;0.30;;;15.50;99.90;;;;;;4752458;30;20036;-84
2022/07/01 01:28:28;;;;;;;0.63;0.25;;;15.50;99.90;;;;;;4737478;30;20056;-84
2022/07/01 01:30:53;;;;;;;0.70;0.20;;;15.40;99.90;;;;;;4754152;30;20063;-83
2022/07/01 01:33:19;;;;;;;0.55;0.20;;;15.50;99.90;;;;;;4753828;30;20044;-86
2022/07/01 01:35:45;;;;;;;0.20;0.10;;;15.60;99.90;;;;;;4755179;30;20063;-85
2022/07/01 01:38:11;;;;;;;0.43;0.20;;;15.40;99.90;;;;;;4762439;30;20052;-85
2022/07/01 01:40:36;;;;;;;1.25;0.20;;;15.40;99.90;;;;;;4754966;30;20485;-85
2022/07/01 01:43:02;;;;;;;0.38;0.10;;;15.70;99.90;;;;;;4737680;30;20055;-85
2022/07/01 01:45:28;;;;;;;0.50;0.20;;;15.40;99.90;;;;;;4737596;30;20052;-85
2022/07/01 01:47:54;;;;;;;0.22;0.20;;;15.40;99.90;;;;;;4752511;30;20044;-83
2022/07/01 01:50:20;;;;;;;2.17;0.17;;;15.40;99.90;;;;;;4753378;30;20490;-85
2022/07/01 01:52:46;;;;;;;0.38;0.20;;;15.30;99.90;;;;;;4753272;30;20044;-85
2022/07/01 01:55:13;;;;;;;0.68;0.20;;;15.30;99.90;;;;;;4753201;30;20044;-84
2022/07/01 01:57:39;;;;;;;0.17;0.10;;;15.20;99.90;;;;;;4722117;30;20109;-84
2022/07/01 02:00:08;;;;;;;0.10;0.10;;;15.30;99.90;;;;;;4749497;30;20122;-84
2022/07/01 02:02:36;;;;;;;1.02;0.20;;;15.30;99.90;;;;;;4741377;30;20138;-84
2022/07/01 02:05:04;;;;;;;0.28;0.20;;;15.30;99.90;;;;;;4746574;30;20117;-85
2022/07/01 02:07:30;;;;;;;0.30;0.20;;;15.30;99.90;;;;;;4753068;30;20079;-84
2022/07/01 02:09:56;;;;;;;0.30;0.30;;;15.30;99.90;;;;;;4751995;30;20075;-85
2022/07/01 02:12:21;;;;;;;0.20;0.20;;;15.20;99.90;;;;;;4737291;30;20075;-85
2022/07/01 02:14:47;;;;;;;0.90;0.10;;;15.30;99.90;;;;;;4752754;30;20052;-84
2022/07/01 02:17:13;;;;;;;1.27;0.30;;;15.30;99.90;;;;;;4752922;30;20048;-86
2022/07/01 02:19:38;;;;;;;1.38;0.30;;;15.20;99.90;;;;;;4751955;30;20475;-83
2022/07/01 02:22:04;;;;;;;0.43;0.30;;;15.20;99.90;;;;;;4736916;30;20067;-85
2022/07/01 02:24:30;;;;;;;3.20;0.30;;;15.20;99.90;;;;;;4736841;30;20090;-85
2022/07/01 02:26:55;;;;;;;0.38;0.25;;;15.20;99.90;;;;;;4733775;30;20060;-85
2022/07/01 02:29:22;;;;;;;0.70;0.40;;;15.20;99.90;;;;;;4753090;30;20490;-85
2022/07/01 02:31:47;;;;;;;0.43;0.40;;;15.20;99.90;;;;;;4745569;30;20056;-85
2022/07/01 02:34:13;;;;;;;0.65;0.40;;;15.20;99.90;;;;;;4752920;30;20092;-85
2022/07/01 02:36:38;;;;;;;0.30;0.30;;;15.20;99.90;;;;;;4752696;30;20059;-85
2022/07/01 02:39:04;;;;;;;0.40;0.30;;;15.20;99.90;;;;;;4736678;30;20048;-85
2022/07/01 02:41:30;;;;;;;1.00;0.30;;;15.20;99.90;;;;;;4749649;30;20090;-86
2022/07/01 02:43:56;;;;;;;0.63;0.30;;;15.20;99.90;;;;;;4752459;30;20131;-85
2022/07/01 02:46:22;;;;;;;0.57;0.40;;;15.10;99.90;;;;;;4735814;30;20135;-86
2022/07/01 02:48:47;;;;;;;1.30;0.40;;;15.10;99.90;;;;;;4754958;30;20059;-85
2022/07/01 02:51:14;;;;;;;0.40;0.30;;;15.10;99.90;;;;;;4749376;30;20060;-85
2022/07/01 02:53:39;;;;;;;2.05;0.30;;;15.10;99.90;;;;;;4758755;30;20101;-86
2022/07/01 02:56:05;;;;;;;1.15;0.47;;;15.10;99.90;;;;;;4752141;30;20051;-85
2022/07/01 02:58:31;;;;;;;0.30;0.30;;;15.10;99.90;;;;;;4752926;30;20079;-85
2022/07/01 03:00:57;;;;;;;0.85;0.40;;;15.10;99.90;;;;;;4752558;30;20056;-86
2022/07/01 03:03:22;;;;;;;0.73;0.40;;;15.10;99.90;;;;;;4735928;30;20048;-85
2022/07/01 03:05:49;;;;;;;0.80;0.40;;;15.00;99.90;;;;;;4736328;30;20091;-85
2022/07/01 03:08:14;;;;;;;0.65;0.50;;;14.90;99.90;;;;;;4752037;30;20115;-85
2022/07/01 03:10:40;;;;;;;0.80;0.75;;;15.00;99.90;;;;;;4736028;30;20056;-85
2022/07/01 03:13:06;;;;;;;0.70;0.30;;;15.00;99.90;;;;;;4736180;30;20052;-84
2022/07/01 03:15:31;;;;;;;1.20;0.35;;;15.00;99.90;;;;;;4742054;30;20529;-85
2022/07/01 03:17:57;;;;;;;0.70;0.50;;;14.90;99.90;;;;;;4751066;30;20052;-85
2022/07/01 03:20:23;;;;;;;1.67;0.40;;;15.00;99.90;;;;;;4751939;30;20391;-85
2022/07/01 03:22:49;;;;;;;1.10;0.47;;;14.90;99.90;;;;;;4736156;30;20048;-85
2022/07/01 03:25:15;;;;;;;2.38;0.52;;;14.80;99.90;;;;;;4752011;30;20044;-85
2022/07/01 03:27:44;;;;;;;1.92;0.45;;;14.90;99.90;;;;;;4752079;30;20095;-84
2022/07/01 03:30:12;;;;;;;2.15;0.50;;;14.80;99.90;;;;;;4752205;30;20131;-85
2022/07/01 03:32:38;;;;;;;0.60;0.50;;;14.80;99.90;;;;;;4751538;30;20044;-85
2022/07/01 03:35:35;;;;;;;0.77;0.47;;;14.80;99.90;;;;;;4752157;30;20075;-86
2022/07/01 03:37:50;;;;;;;;;;;14.80;99.90;;;;;;4743622;30;20063;-85
2022/07/01 03:40:15;;;;;;;1.05;0.55;;;14.80;99.90;;;;;;4742370;30;19929;-84
2022/07/01 03:42:41;;;;;;;0.90;0.40;;;14.80;99.90;;;;;;4736408;30;20052;-85
2022/07/01 03:45:07;;;;;;;1.00;0.40;;;14.80;99.90;;;;;;4735599;30;20056;-85
2022/07/01 03:47:33;;;;;;;1.73;0.60;;;14.70;99.90;;;;;;4751369;30;20127;-86
2022/07/01 03:49:59;;;;;;;1.67;0.75;;;14.80;99.90;;;;;;4751636;30;20127;-84
2022/07/01 03:52:25;;;;;;;1.13;0.70;;;14.80;99.90;;;;;;4743018;30;20508;-85
2022/07/01 03:54:50;;;;;;;1.08;0.65;;;14.70;99.90;;;;;;4752002;30;20111;-84
2022/07/01 03:57:16;;;;;;;2.30;0.40;;;14.70;99.90;;;;;;4736529;30;20063;-85
2022/07/01 03:59:42;;;;;;;0.80;0.50;;;14.80;99.90;;;;;;4739632;30;20421;-85
2022/07/01 04:02:07;;;;;;;0.43;0.40;;;14.80;99.90;;;;;;4733992;30;20051;-85
2022/07/01 04:04:34;;;;;;;3.53;0.60;;;14.90;99.90;;;;;;4755176;30;20040;-85
2022/07/01 04:07:02;;;;;;;2.35;0.50;;;14.80;99.90;;;;;;4755181;30;20032;-85
2022/07/01 04:09:29;;;;;;;0.70;0.40;;;14.80;99.90;;;;;;4738881;30;20060;-86
2022/07/01 04:11:55;;;;;;;1.13;0.60;;;14.80;99.90;;;;;;4754893;30;20059;-85
2022/07/01 04:14:22;;;;;;;1.95;0.73;;;14.80;99.90;;;;;;4738980;30;20048;-85
2022/07/01 04:16:47;;;;;;;1.50;0.70;;;14.80;99.90;;;;;;4754769;30;20052;-85
2022/07/01 04:19:14;;;;;;;0.70;0.50;;;14.80;99.90;;;;;;4738962;30;20055;-85
2022/07/01 04:24:26;;;;;;;1.40;0.77;;;14.80;99.90;;;;;;4755136;30;20060;-85
2022/07/01 04:26:52;;;;;;;2.03;0.65;;;14.90;99.90;;;;;;4759411;30;20043;-85
2022/07/01 04:29:19;;;;;;;0.70;0.50;;;14.90;99.90;;;;;;4741433;30;20103;-85
2022/07/01 04:31:45;;;;;;;0.90;0.60;;;14.90;99.90;;;;;;4723697;30;20056;-85
2022/07/01 04:34:11;;;;;;;2.35;0.70;;;14.90;99.90;;;;;;4754792;30;20083;-85
2022/07/01 04:36:37;;;;;;;2.25;0.80;;;14.90;99.90;;;;;;4754378;30;20099;-85
2022/07/01 04:39:04;;;;;;;1.58;0.85;;;15.00;99.90;;;;;;4754464;30;20044;-85
2022/07/01 04:44:16;;;;;;;1.47;0.90;;;15.00;99.90;;;;;;4754471;30;20137;-85
2022/07/01 04:46:41;;;;;;;1.77;0.90;;;15.00;99.90;;;;;;4734349;30;20048;-85
2022/07/01 04:49:07;;;;;;;1.52;0.80;;;15.00;99.90;;;;;;4738667;30;20048;-85
2022/07/01 04:51:34;;;;;;;2.83;1.02;;;15.00;99.90;;;;;;4745507;30;20055;-85
2022/07/01 04:54:07;;;;;;;3.05;1.67;;;15.10;99.90;;;;;;4738789;30;20417;-85
2022/07/01 04:56:34;;;;;;;2.90;1.00;;;15.10;99.90;;;;;;4754401;30;20067;-84
2022/07/01 04:59:00;;;;;;;2.28;0.95;;;15.10;99.90;;;;;;4746081;30;20040;-85
2022/07/01 05:01:26;;;;;;;2.38;0.80;;;15.10;99.90;;;;;;4746852;30;20602;-86
2022/07/01 05:03:52;;;;;;;1.45;0.80;;;15.10;99.90;;;;;;4754373;30;20068;-85
2022/07/01 05:06:19;;;;;;;2.40;1.00;;;15.40;99.90;;;;;;4738122;30;20056;-85
2022/07/01 05:08:45;;;;;;;1.73;0.90;;;15.20;99.90;;;;;;4760210;30;20065;-85
2022/07/01 05:11:10;;;;;;;3.08;1.00;;;15.20;99.90;;;;;;4753724;30;20056;-85
2022/07/01 05:13:36;;;;;;;2.80;1.20;;;15.20;99.90;;;;;;4753891;30;20041;-85
2022/07/01 05:16:03;;;;;;;4.13;1.30;;;15.20;99.90;;;;;;4737761;30;20062;-85
2022/07/01 05:23:57;;;;;;;1.52;1.00;;;15.20;99.90;;;;;;4754003;30;20059;-84
2022/07/01 05:26:25;;;;;;;3.10;1.50;;;15.20;99.90;;;;;;4752881;30;20056;-85
2022/07/01 05:28:54;;;;;;;2.95;1.33;;;15.20;99.90;;;;;;4753604;30;20102;-85
2022/07/01 05:31:20;;;;;;;3.15;0.90;;;15.20;99.90;;;;;;4752748;30;20047;-85
2022/07/01 05:33:46;;;;;;;4.20;1.00;;;15.20;99.90;;;;;;4753468;30;20056;-85
2022/07/01 05:36:12;;;;;;;2.65;1.13;;;15.20;99.90;;;;;;4737833;30;20473;-86
2022/07/01 05:38:38;;;;;;;2.13;0.95;;;15.20;99.90;;;;;;4737625;30;20083;-85
2022/07/01 05:41:04;;;;;;;1.67;0.80;;;15.20;99.90;;;;;;4753301;30;20067;-85
2022/07/01 05:43:30;;;;;;;1.98;1.35;;;15.30;99.90;;;;;;4737933;30;20060;-86
2022/07/01 05:45:56;;;;;;;1.63;1.00;;;15.30;99.90;;;;;;4752946;30;20553;-86
2022/07/01 05:48:22;;;;;;;1.63;0.80;;;15.30;99.90;;;;;;4753436;30;20048;-86
2022/07/01 05:50:48;;;;;;;3.60;1.05;;;15.40;99.90;;;;;;4753525;30;20387;-85
2022/07/01 05:53:14;;;;;;;1.40;1.00;;;15.40;99.90;;;;;;4737281;30;20052;-86
2022/07/01 06:15:09;;;;;;;6.97;4.55;;;15.80;99.90;;;;;;4802077;29;20046;-88
2022/07/01 06:17:35;;;;;;;7.45;4.22;;;15.90;99.90;;;;;;4808270;29;20047;-86
2022/07/01 06:20:02;;;;;;;5.53;2.80;;;15.90;99.90;;;;;;4797409;29;20079;-85
2022/07/01 06:22:27;;;;;;;5.22;3.53;;;16.00;99.90;;;;;;4773576;30;20058;-86
2022/07/01 06:24:53;;;;;;;5.20;3.25;;;16.00;99.90;;;;;;4772923;30;20055;-86
2022/07/01 06:27:19;;;;;;;6.80;3.90;;;16.00;99.90;;;;;;4772599;29;20055;-85
2022/07/01 06:29:47;;;;;;;6.07;3.20;;;16.30;99.90;;;;;;4773571;30;20106;-87
2022/07/01 06:32:15;;;;;;;5.18;2.33;;;15.90;99.90;;;;;;4779352;29;20083;-87
2022/07/01 06:34:41;;;;;;;7.90;3.67;;;16.10;99.90;;;;;;4774934;30;20047;-88
2022/07/01 06:37:07;;;;;;;8.52;4.65;;;16.20;99.90;;;;;;4772520;29;20094;-88
2022/07/01 06:39:33;;;;;;;6.53;3.88;;;16.20;99.90;;;;;;4771871;30;20046;-87
2022/07/01 06:41:59;;;;;;;11.45;3.30;;;16.20;99.90;;;;;;4772020;30;20061;-87
2022/07/01 06:44:25;;;;;;;4.35;2.85;;;16.30;99.90;;;;;;4772811;29;20050;-87
2022/07/01 06:46:53;;;;;;;9.90;4.60;;;16.30;99.90;;;;;;4772188;30;20039;-87
2022/07/01 06:49:19;;;;;;;6.80;3.42;;;16.30;99.90;;;;;;4767359;29;20077;-87
2022/07/01 06:51:45;;;;;;;7.53;3.13;;;16.40;99.90;;;;;;4777890;30;20126;-85
2022/07/01 06:54:10;;;;;;;6.85;3.75;;;16.40;99.90;;;;;;4788196;29;20162;-86
2022/07/01 06:56:36;;;;;;;4.30;2.80;;;16.60;99.90;;;;;;4772586;30;20560;-86
2022/07/01 06:59:05;;;;;;;5.25;2.70;;;16.60;99.90;;;;;;4787180;29;20052;-87
2022/07/01 07:01:31;;;;;;;7.68;4.18;;;16.70;99.90;;;;;;4771763;30;20055;-83
2022/07/01 07:03:56;;;;;;;6.47;3.85;;;16.80;99.90;;;;;;4772029;29;20051;-82
2022/07/01 07:06:22;;;;;;;8.77;3.75;;;16.80;99.90;;;;;;4786942;29;20051;-84
2022/07/01 07:08:48;;;;;;;8.48;3.60;;;16.90;99.90;;;;;;4787423;30;20066;-84
2022/07/01 07:11:14;;;;;;;6.15;3.85;;;16.90;99.90;;;;;;4771753;30;20622;-84
2022/07/01 07:13:41;;;;;;;8.45;3.42;;;17.00;99.90;;;;;;4787896;29;20043;-84
2022/07/01 07:16:07;;;;;;;6.93;4.40;;;17.00;99.90;;;;;;4787983;29;20107;-84
2022/07/01 07:18:33;;;;;;;7.13;3.75;;;17.10;99.90;;;;;;4787848;29;20129;-84
2022/07/01 07:20:58;;;;;;;6.70;3.40;;;17.20;99.90;;;;;;4771785;30;20063;-85
2022/07/01 07:23:24;;;;;;;10.75;3.50;;;17.30;99.90;;;;;;4771440;30;20055;-84
2022/07/01 07:25:50;;;;;;;7.55;3.88;;;17.30;99.90;;;;;;4771809;30;20051;-84
2022/07/01 07:28:15;;;;;;;5.65;3.47;;;17.40;99.90;;;;;;4771667;30;20517;-84
2022/07/01 07:30:41;;;;;;;7.05;3.80;;;17.40;99.90;;;;;;4787603;29;20059;-84
2022/07/01 07:33:07;;;;;;;11.93;5.40;;;17.40;99.90;;;;;;4771256;29;20055;-85
2022/07/01 07:35:33;;;;;;;8.35;4.13;;;17.60;99.90;;;;;;4787866;29;20047;-84
2022/07/01 07:37:58;;;;;;;7.43;4.63;;;17.60;99.90;;;;;;4787734;29;20075;-84
2022/07/01 07:40:24;;;;;;;6.70;3.97;;;17.60;99.90;;;;;;4771300;30;20051;-84
2022/07/01 07:42:50;;;;;;;5.07;3.20;;;17.60;99.90;;;;;;4787748;29;20123;-84
2022/07/01 07:45:16;;;;;;;8.18;4.00;;;17.70;99.90;;;;;;4787646;29;20054;-84
2022/07/01 07:47:48;;;;;;;10.52;4.18;;;17.70;99.90;;;;;;4787503;30;20039;-84
2022/07/01 07:50:14;;;;;;;11.80;6.28;;;17.80;99.90;;;;;;4771479;29;20168;-84
2022/07/01 07:52:41;;;;;;;8.40;4.80;;;17.80;99.90;;;;;;4787666;29;20055;-85
2022/07/01 07:55:09;;;;;;;9.15;4.82;;;17.80;99.90;;;;;;4787488;29;20047;-84
2022/07/01 07:57:39;;;;;;;7.72;4.72;;;17.90;99.90;;;;;;4787716;29;20051;-85
2022/07/01 08:00:10;;;;;;;7.15;4.53;;;17.90;99.90;;;;;;4771158;30;20123;-84
2022/07/01 08:02:36;;;;;;;9.60;3.50;;;17.90;99.90;;;;;;4771010;30;20490;-85
2022/07/01 08:05:02;;;;;;;6.90;3.60;;;17.90;99.90;;;;;;4787457;29;20120;-85
2022/07/01 08:07:28;;;;;;;7.35;4.53;;;17.90;99.90;;;;;;4771356;30;20192;-85
2022/07/01 08:09:55;;;;;;;7.93;5.50;;;18.00;99.90;;;;;;4787024;29;20452;-85
2022/07/01 08:12:22;;;;;;;7.20;4.32;;;17.70;99.90;;;;;;4771115;30;20058;-85
2022/07/01 08:14:48;;;;;;;10.52;5.05;;;18.00;99.90;;;;;;4771480;30;20404;-85
2022/07/01 08:17:14;;;;;;;11.23;5.05;;;18.00;99.90;;;;;;4771494;29;20444;-85
2022/07/01 08:19:40;;;;;;;8.15;4.93;;;18.10;99.90;;;;;;4787510;29;20398;-85
2022/07/01 08:22:06;;;;;;;8.40;4.57;;;18.20;99.90;;;;;;4771206;30;20361;-84
2022/07/01 08:24:32;;;;;;;7.13;4.35;;;18.30;99.90;;;;;;4787729;29;20058;-84
2022/07/01 08:26:57;;;;;;;8.45;4.90;;;18.40;99.90;;;;;;4787608;29;20047;-85
2022/07/01 08:29:23;;;;;;;8.10;5.18;;;18.50;99.90;;;;;;4771450;30;20105;-85
2022/07/01 08:31:49;;;;;;;9.07;4.57;;;18.50;99.90;;;;;;4786107;29;20054;-85
2022/07/01 08:34:15;;;;;;;8.82;3.78;;;18.40;99.90;;;;;;4771150;29;20051;-85
2022/07/01 08:36:41;;;;;;;10.07;3.83;;;18.50;99.90;;;;;;4787332;29;20057;-85
2022/07/01 08:39:07;;;;;;;6.88;3.60;;;18.50;99.90;;;;;;4771224;30;20138;-85
2022/07/01 08:41:33;;;;;;;5.35;3.25;;;18.50;99.90;;;;;;4787213;29;20055;-84
2022/07/01 08:43:58;;;;;;;9.20;4.25;;;18.50;99.90;;;;;;4787403;29;20052;-85
2022/07/01 08:46:26;;;;;;;7.95;3.38;;;18.50;99.90;;;;;;4790593;29;20051;-85
2022/07/01 08:48:53;;;;;;;4.00;3.15;;;18.70;99.90;;;;;;4774319;29;20120;-85
2022/07/01 08:51:19;;;;;;;7.70;3.85;;;18.70;99.90;;;;;;4790724;29;20135;-85
2022/07/01 08:53:44;;;;;;;6.20;3.40;;;18.80;99.90;;;;;;4774383;30;20051;-84
2022/07/01 08:58:55;;;;;;;6.82;3.78;;;18.90;99.90;;;;;;4774449;30;20186;-85
2022/07/01 09:01:24;;;;;;;5.28;3.17;;;19.00;99.90;;;;;;4789979;29;20074;-85
2022/07/01 09:03:52;;;;;;;5.22;3.20;;;19.00;99.90;;;;;;4790042;29;20051;-84
2022/07/01 09:06:23;;;;;;;7.60;2.47;;;19.00;99.90;;;;;;4790077;29;20052;-85
2022/07/01 09:08:50;;;;;;;4.90;2.50;;;19.10;99.90;;;;;;4789836;29;20110;-84
2022/07/01 09:11:24;;;;;;;6.63;2.60;;;19.50;99.90;;;;;;4789913;29;20553;-85
2022/07/01 09:14:07;;;;;;;4.55;2.55;;;19.70;99.90;;;;;;4790001;29;20648;-85
2022/07/01 09:17:05;;;;;;;4.93;2.28;;;19.80;99.90;;;;;;4790113;29;20048;-85
2022/07/01 09:19:36;;;;;;;4.05;2.25;;;20.10;99.90;;;;;;4789933;29;20443;-85
2022/07/01 09:22:04;;;;;;;3.60;1.88;;;20.40;99.90;;;;;;4773967;30;20082;-84
2022/07/01 09:24:41;;;;;;;3.72;1.67;;;20.60;99.90;;;;;;4789719;29;20523;-85
2022/07/01 09:27:13;;;;;;;3.42;1.40;;;20.60;99.90;;;;;;4774048;30;20138;-85
2022/07/01 09:29:43;;;;;;;5.97;1.48;;;20.80;99.90;;;;;;4773486;30;20055;-85
2022/07/01 09:32:12;;;;;;;4.78;1.50;;;21.10;99.90;;;;;;4773526;30;20063;-85
2022/07/01 09:34:52;;;;;;;4.55;1.70;;;21.10;99.90;;;;;;4773232;30;20226;-85
2022/07/01 09:37:23;;;;;;;3.75;1.10;;;21.10;99.90;;;;;;4789698;29;20069;-86
2022/07/01 09:39:55;;;;;;;3.47;0.90;;;21.00;99.90;;;;;;4773469;30;20051;-85
2022/07/01 09:42:23;;;;;;;3.35;1.45;;;21.10;99.90;;;;;;4789920;29;20062;-85
2022/07/01 09:44:55;;;;;;;2.75;1.38;;;21.00;99.90;;;;;;4789557;29;20055;-85
2022/07/01 09:47:25;;;;;;;3.22;0.90;;;21.10;99.90;;;;;;4789377;29;20134;-84
2022/07/01 09:49:52;;;;;;;5.40;1.00;;;21.20;99.90;;;;;;4789057;29;20059;-85
2022/07/01 09:52:19;;;;;;;3.08;1.30;;;21.30;99.90;;;;;;4789351;29;20126;-84
2022/07/01 09:54:48;;;;;;;2.72;1.25;;;21.20;99.90;;;;;;4789141;29;20092;-85
2022/07/01 09:57:15;;;;;;;1.80;0.90;;;21.20;99.90;;;;;;4772778;30;20055;-85
2022/07/01 09:59:41;;;;;;;3.60;1.85;;;21.20;99.90;;;;;;4773210;30;20115;-85
2022/07/01 10:02:09;;;;;;;3.78;1.20;;;21.30;99.90;;;;;;4789205;29;20054;-84
2022/07/01 10:04:38;;;;;;;3.30;1.20;;;21.20;99.90;;;;;;4773045;29;20043;-85
2022/07/01 10:07:39;;;;;;;2.05;1.00;;;21.10;99.90;;;;;;4773329;30;20066;-85
2022/07/01 10:10:29;;;;;;;3.08;1.02;;;21.20;99.90;;;;;;4768624;30;20142;-85
2022/07/01 10:12:55;;;;;;;2.60;0.88;;;21.20;99.90;;;;;;4768945;30;20169;-85
2022/07/01 10:15:22;;;;;;;1.83;0.60;;;21.30;99.90;;;;;;4754212;30;20131;-85
2022/07/01 10:17:51;;;;;;;1.88;0.60;;;21.40;99.90;;;;;;4768735;30;20425;-85
2022/07/01 10:20:19;;;;;;;2.08;0.70;;;21.30;99.90;;;;;;4768772;30;20056;-85
2022/07/01 10:22:46;;;;;;;1.90;0.60;;;21.20;99.90;;;;;;4768808;30;20445;-85
2022/07/01 10:25:34;;;;;;;2.10;0.60;;;21.30;99.90;;;;;;4753682;29;20502;-85
2022/07/01 10:28:19;;;;;;;2.78;0.70;;;21.40;99.90;;;;;;4753813;30;20071;-85
2022/07/01 10:30:57;;;;;;;2.58;0.70;;;21.30;99.90;;;;;;4768736;30;20444;-86
2022/07/01 10:33:29;;;;;;;2.50;0.60;;;21.40;99.90;;;;;;4768698;30;20463;-85
2022/07/01 10:35:54;;;;;;;1.95;0.50;;;21.30;99.90;;;;;;4768719;30;20047;-86
2022/07/01 10:38:20;;;;;;;4.43;0.80;;;21.60;99.90;;;;;;4768636;30;20533;-86
2022/07/01 10:40:48;;;;;;;2.95;0.63;;;21.80;99.90;;;;;;4753628;30;20052;-85
2022/07/01 10:43:31;;;;;;;1.90;0.60;;;22.00;99.90;;;;;;4753790;30;20051;-86
2022/07/01 10:45:57;;;;;;;2.85;0.60;;;22.00;99.90;;;;;;4780950;30;20060;-86
2022/07/01 10:48:25;;;;;;;2.05;0.55;;;22.20;99.90;;;;;;4772120;29;20059;-85
2022/07/01 10:50:52;;;;;;;1.98;0.70;;;22.20;99.90;;;;;;4788412;30;20479;-85
2022/07/01 10:53:18;;;;;;;2.72;0.70;;;22.30;99.90;;;;;;4788313;29;20059;-85
2022/07/01 10:55:47;;;;;;;3.50;0.77;;;22.40;99.90;;;;;;4788260;29;20043;-85
2022/07/01 10:58:14;;;;;;;0.73;0.45;;;22.60;99.90;;;;;;4772011;30;20055;-85
2022/07/01 11:00:44;;;;;;;2.47;0.57;;;22.50;99.90;;;;;;4788112;29;20120;-85
2022/07/01 11:03:30;;;;;;;2.03;0.70;;;22.60;99.90;;;;;;4772247;29;20373;-85
2022/07/01 11:05:55;;;;;;;2.85;0.85;;;22.50;99.90;;;;;;4787745;29;20066;-87
2022/07/01 11:23:34;;;;;;;1.80;0.40;;;21.20;99.90;;;;;;5023616;24;20070;-86
2022/07/01 11:26:00;;;;;;;5.68;0.40;;;21.00;99.90;;;;;;4776898;30;20185;-86
2022/07/01 11:28:26;;;;;;;0.90;0.20;;;20.80;99.90;;;;;;4754244;30;20130;-85
2022/07/01 11:31:01;;;;;;;0.65;0.20;;;20.70;99.90;;;;;;4770148;30;20061;-86
2022/07/01 11:33:27;;;;;;;3.63;0.35;;;20.50;99.90;;;;;;4754392;30;20394;-85
2022/07/01 11:41:25;;;;;;;2.47;0.30;;;20.30;99.90;;;;;;4768361;30;20523;-86
2022/07/01 11:43:51;;;;;;;3.90;0.20;;;20.30;99.90;;;;;;4787605;30;20062;-86
2022/07/01 11:46:18;;;;;;;1.60;0.30;;;20.40;99.90;;;;;;4771672;30;20573;-86
2022/07/01 11:48:50;;;;;;;0.25;0.10;;;20.40;99.90;;;;;;4787701;30;20055;-86
2022/07/01 11:51:19;;;;;;;1.55;0.30;;;20.20;99.90;;;;;;4771230;30;20059;-87
2022/07/01 11:53:48;;;;;;;2.22;0.20;;;20.30;99.90;;;;;;4770691;30;20066;-86
2022/07/01 11:56:14;;;;;;;0.25;0.20;;;20.20;99.90;;;;;;4771005;30;20059;-86
2022/07/01 11:58:48;;;;;;;2.10;0.20;;;20.40;99.90;;;;;;4771850;30;20047;-87
2022/07/01 12:01:24;;;;;;;0.22;0.10;;;20.80;99.90;;;;;;4771763;30;20047;-86
2022/07/01 12:03:50;;;;;;;0.45;0.10;;;21.10;99.90;;;;;;4787608;30;20055;-87
2022/07/01 12:06:18;;;;;;;1.02;0.20;;;21.30;99.90;;;;;;4787487;30;20424;-87
2022/07/01 12:08:45;;;;;;;0.40;0.15;;;21.20;99.90;;;;;;4771583;30;20059;-87
2022/07/01 12:11:11;;;;;;;2.10;0.30;;;21.30;99.90;;;;;;4764652;30;20497;-86
2022/07/01 12:13:38;;;;;;;0.32;0.17;;;21.20;99.90;;;;;;4769542;30;20055;-87
2022/07/01 12:16:08;;;;;;;0.65;0.22;;;21.00;99.90;;;;;;4754183;30;20047;-87
2022/07/01 12:18:34;;;;;;;0.60;0.20;;;21.00;99.90;;;;;;4783976;29;20055;-87
2022/07/01 12:21:01;;;;;;;2.38;0.30;;;21.00;99.90;;;;;;4774526;30;20456;-87
2022/07/01 12:23:27;;;;;;;1.65;0.40;;;21.00;99.90;;;;;;4790111;29;20417;-88
2022/07/01 12:25:54;;;;;;;3.50;0.30;;;21.00;99.90;;;;;;4775451;30;20051;-88
2022/07/01 12:28:37;;;;;;;0.98;0.32;;;21.40;99.90;;;;;;4775248;30;20454;-87
2022/07/01 12:31:08;;;;;;;3.33;0.40;;;21.70;99.90;;;;;;4774664;30;20082;-87
2022/07/01 12:33:43;;;;;;;2.97;0.30;;;21.90;99.90;;;;;;4773959;30;20061;-89
2022/07/01 12:36:12;;;;;;;1.00;0.20;;;21.90;99.90;;;;;;4773683;30;20051;-85
2022/07/01 12:38:38;;;;;;;1.73;0.30;;;21.60;99.90;;;;;;4759355;30;20146;-85
2022/07/01 12:41:27;;;;;;;0.88;0.30;;;21.60;99.90;;;;;;4790242;30;20134;-84
2022/07/01 12:43:54;;;;;;;1.33;0.30;;;21.50;99.90;;;;;;4774538;30;20065;-85
2022/07/01 12:46:32;;;;;;;1.17;0.20;;;21.50;99.90;;;;;;4774402;30;20059;-85
2022/07/01 12:48:58;;;;;;;1.40;0.40;;;21.40;99.90;;;;;;4774543;30;20059;-84
2022/07/01 12:51:32;;;;;;;0.47;0.20;;;21.60;99.90;;;;;;4779514;30;20083;-85
2022/07/01 12:53:58;;;;;;;2.13;0.30;;;22.30;99.90;;;;;;4756378;30;20559;-84
2022/07/01 12:56:27;;;;;;;1.70;0.22;;;22.30;99.90;;;;;;4756571;30;20059;-85
2022/07/01 12:58:54;;;;;;;1.38;0.17;;;22.60;99.90;;;;;;4772519;30;20056;-86
2022/07/01 13:01:21;;;;;;;1.35;0.75;;;22.70;99.90;;;;;;4771268;30;20087;-85
2022/07/01 13:03:47;;;;;;;0.63;0.20;;;22.90;99.90;;;;;;4756240;30;20056;-85
2022/07/01 13:06:13;;;;;;;2.03;0.60;;;22.90;99.90;;;;;;4772179;30;20494;-85
2022/07/01 13:08:38;;;;;;;0.90;0.10;;;23.10;99.90;;;;;;4756394;30;20134;-85
2022/07/01 13:11:06;;;;;;;0.13;0.10;;;23.10;99.90;;;;;;4772053;30;20052;-85
2022/07/01 13:13:33;;;;;;;1.75;0.30;;;23.10;99.90;;;;;;4771847;30;20494;-85
2022/07/01 13:15:58;;;;;;;2.50;0.30;;;22.90;99.90;;;;;;4777261;30;20055;-85
2022/07/01 13:18:24;;;;;;;0.95;0.10;;;23.00;99.90;;;;;;4790154;30;20043;-85
2022/07/01 13:20:50;;;;;;;2.03;0.32;;;23.10;99.90;;;;;;4789947;30;20474;-86
2022/07/01 13:23:16;;;;;;;1.27;0.20;;;23.30;99.90;;;;;;4773583;30;20062;-84
2022/07/01 13:25:43;;;;;;;2.88;0.30;;;23.40;99.60;;;;;;4788982;30;20059;-85
2022/07/01 13:28:09;;;;;;;0.60;0.10;;;23.50;99.90;;;;;;4779084;29;20047;-85
2022/07/01 13:34:09;;;;;;;1.85;0.20;;;23.00;99.40;;;;;;4828977;24;20055;-90
2022/07/01 13:40:35;;;;;;;0.30;0.10;;;23.20;99.90;;;;;;4706649;30;20100;-92
2022/07/01 13:58:04;;;;;;;;;;;;;;;;;;;;;
2022/07/01 14:15:53;;;;;;;3.70;0.30;;;24.10;97.30;;;;;;4814921;24;20731;-93
2022/07/01 14:46:22;;;;;;;2.75;0.20;;;25.20;93.50;;;;;;4787146;29;20050;-91
2022/07/01 15:49:37;;;;;;;2.53;0.30;;;25.00;92.60;;;;;;4749634;24;20163;-87